Time;durP1;ratioP1;P1;durP2;ratioP2;P2;SDS_P1;SDS_P2;PMS_P1;PMS_P2;Temp;Humidity;BMP_temperature;BMP_pressure;BME280_temperature;BME280_humidity;BME280_pressure;Samples;Min_cycle;Max_cycle;Signal;HPM_P1;HPM_P2
2022/06/09 00:00:35;;;;;;;18.13;8.47;;;14.30;1.00;;;;;;5056753;28;20199;-66
2022/06/09 00:03:08;;;;;;;14.30;8.27;;;14.30;1.00;;;;;;5043402;28;20307;-66
2022/06/09 00:05:37;;;;;;;14.47;8.33;;;14.30;1.00;;;;;;5042359;28;20270;-66
2022/06/09 00:08:06;;;;;;;13.37;9.00;;;14.40;1.00;;;;;;5060715;28;20236;-66
2022/06/09 00:10:41;;;;;;;14.93;8.50;;;14.40;1.00;;;;;;5057880;28;20658;-66
2022/06/09 00:13:08;;;;;;;14.33;8.23;;;14.40;1.00;;;;;;5043486;28;20276;-66
2022/06/09 00:15:35;;;;;;;16.53;8.27;;;14.40;99.90;;;;;;5053686;28;20216;-68
2022/06/09 00:18:03;;;;;;;14.20;8.03;;;14.40;99.90;;;;;;5060664;28;20568;-66
2022/06/09 00:20:30;;;;;;;15.20;9.10;;;14.40;99.90;;;;;;5054856;28;20239;-67
2022/06/09 00:22:57;;;;;;;17.23;7.97;;;14.40;1.00;;;;;;5053512;28;20625;-66
2022/06/09 00:25:24;;;;;;;14.63;8.57;;;14.40;1.00;;;;;;5053316;28;20367;-66
2022/06/09 00:27:51;;;;;;;12.60;8.10;;;14.30;1.00;;;;;;5048398;28;20292;-66
2022/06/09 00:30:18;;;;;;;17.73;8.00;;;14.30;1.00;;;;;;5049405;28;20203;-66
2022/06/09 00:32:45;;;;;;;13.57;8.20;;;14.30;1.00;;;;;;5041686;28;20193;-66
2022/06/09 00:35:13;;;;;;;16.73;8.17;;;14.30;1.00;;;;;;5042352;28;20225;-66
2022/06/09 00:37:40;;;;;;;13.57;7.77;;;14.40;1.00;;;;;;5056146;28;20320;-66
2022/06/09 00:40:09;;;;;;;15.00;8.13;;;14.40;1.00;;;;;;5047620;28;20206;-66
2022/06/09 00:42:36;;;;;;;14.17;7.20;;;14.40;99.90;;;;;;5039663;28;20254;-66
2022/06/09 00:45:29;;;;;;;18.63;7.90;;;14.30;99.90;;;;;;5045239;28;20260;-67
2022/06/09 00:48:07;;;;;;;17.37;8.10;;;14.30;1.00;;;;;;5038564;28;20203;-66
2022/06/09 00:50:37;;;;;;;15.53;7.17;;;14.30;1.00;;;;;;5056710;28;20696;-68
2022/06/09 00:53:09;;;;;;;17.50;7.67;;;14.30;1.00;;;;;;5055348;28;20206;-67
2022/06/09 00:55:36;;;;;;;20.73;8.40;;;14.20;1.00;;;;;;5056422;28;20195;-66
2022/06/09 00:58:07;;;;;;;17.17;8.47;;;14.20;1.00;;;;;;5043428;28;20654;-65
2022/06/09 01:00:55;;;;;;;17.20;8.10;;;14.30;1.00;;;;;;5046925;28;20187;-65
2022/06/09 01:03:25;;;;;;;15.80;8.40;;;14.20;1.00;;;;;;5046898;28;20755;-64
2022/06/09 01:06:04;;;;;;;21.80;8.80;;;14.20;1.00;;;;;;5039228;28;20203;-64
2022/06/09 01:08:32;;;;;;;21.93;9.07;;;14.20;1.00;;;;;;5058244;28;20195;-64
2022/06/09 01:10:59;;;;;;;19.90;8.30;;;14.20;1.00;;;;;;5053154;28;20252;-64
2022/06/09 01:13:26;;;;;;;15.53;8.67;;;14.10;1.00;;;;;;5056432;28;20240;-64
2022/06/09 01:16:23;;;;;;;13.53;8.03;;;14.10;1.00;;;;;;5044953;28;20249;-65
2022/06/09 01:19:16;;;;;;;18.07;7.77;;;14.10;1.00;;;;;;5056746;28;20194;-65
2022/06/09 01:21:46;;;;;;;13.57;7.67;;;14.10;1.00;;;;;;5055995;28;20231;-65
2022/06/09 01:24:46;;;;;;;22.00;8.43;;;14.10;1.00;;;;;;5056263;28;20199;-65
2022/06/09 01:27:15;;;;;;;14.50;8.60;;;14.00;1.00;;;;;;5047992;28;20600;-64
2022/06/09 01:29:45;;;;;;;21.33;8.40;;;14.00;1.00;;;;;;5058733;28;20260;-65
2022/06/09 01:32:29;;;;;;;17.57;8.13;;;13.90;99.90;;;;;;5056315;28;20183;-64
2022/06/09 01:35:06;;;;;;;24.17;8.27;;;13.80;99.90;;;;;;5038334;28;20565;-64
2022/06/09 01:37:43;;;;;;;17.27;7.70;;;13.80;99.90;;;;;;5046316;28;20301;-66
2022/06/09 01:40:14;;;;;;;13.57;8.03;;;13.80;1.00;;;;;;5058016;28;20232;-65
2022/06/09 01:42:49;;;;;;;17.30;9.27;;;13.70;1.00;;;;;;5040618;28;20209;-66
2022/06/09 01:45:51;;;;;;;16.73;8.70;;;13.70;1.00;;;;;;5030399;28;20206;-66
2022/06/09 01:48:20;;;;;;;22.63;8.57;;;13.70;99.90;;;;;;5054594;28;20619;-63
2022/06/09 01:51:18;;;;;;;19.10;8.53;;;13.70;99.90;;;;;;5032379;28;20238;-65
2022/06/09 01:53:59;;;;;;;22.03;9.10;;;13.70;99.90;;;;;;5043634;28;20195;-66
2022/06/09 01:56:53;;;;;;;23.07;9.63;;;13.70;99.90;;;;;;5043966;28;20261;-64
2022/06/09 01:59:38;;;;;;;17.23;8.53;;;13.70;1.00;;;;;;5043901;28;20261;-63
2022/06/09 02:02:12;;;;;;;17.67;8.93;;;13.70;1.00;;;;;;5052573;28;20203;-63
2022/06/09 02:04:53;;;;;;;25.27;9.80;;;13.70;99.90;;;;;;5057722;28;20205;-63
2022/06/09 02:07:21;;;;;;;21.90;8.60;;;13.70;1.00;;;;;;5055758;28;20261;-64
2022/06/09 02:09:48;;;;;;;20.57;8.60;;;13.70;25.60;;;;;;5041560;28;20284;-63
2022/06/09 02:12:22;;;;;;;22.80;9.33;;;13.60;39.00;;;;;;5050620;28;20207;-64
2022/06/09 02:14:52;;;;;;;20.67;8.73;;;13.70;1.00;;;;;;5045501;28;20217;-64
2022/06/09 02:17:20;;;;;;;21.13;8.70;;;13.60;40.00;;;;;;5042897;28;20195;-63
2022/06/09 02:19:49;;;;;;;16.17;8.20;;;13.70;1.00;;;;;;5026706;28;20260;-63
2022/06/09 02:22:16;;;;;;;15.47;8.67;;;13.60;1.00;;;;;;5058428;28;20192;-64
2022/06/09 02:24:43;;;;;;;20.53;7.63;;;13.60;99.60;;;;;;5052420;28;20335;-64
2022/06/09 02:27:10;;;;;;;20.30;8.90;;;13.60;99.90;;;;;;5058081;28;20302;-65
2022/06/09 02:29:37;;;;;;;16.13;8.83;;;13.60;73.50;;;;;;5030931;28;20625;-65
2022/06/09 02:32:05;;;;;;;18.13;8.23;;;13.70;1.00;;;;;;5058332;28;20597;-66
2022/06/09 02:34:32;;;;;;;15.77;7.47;;;13.70;1.00;;;;;;5037605;28;20245;-65
2022/06/09 02:36:59;;;;;;;16.53;8.43;;;13.80;1.00;;;;;;5028770;28;20215;-66
2022/06/09 02:39:26;;;;;;;18.03;7.83;;;13.80;99.90;;;;;;5053984;28;20227;-66
2022/06/09 02:41:53;;;;;;;22.80;7.97;;;13.90;1.00;;;;;;5038611;28;20200;-65
2022/06/09 02:44:20;;;;;;;16.13;7.13;;;13.90;1.00;;;;;;5040417;28;20204;-66
2022/06/09 02:46:47;;;;;;;18.43;7.30;;;13.90;99.90;;;;;;5058756;28;20277;-66
2022/06/09 02:49:14;;;;;;;17.27;7.30;;;13.90;1.00;;;;;;5042992;28;20226;-65
2022/06/09 02:51:42;;;;;;;18.20;7.57;;;13.90;1.00;;;;;;5060144;28;20206;-64
2022/06/09 02:54:12;;;;;;;15.23;7.13;;;13.90;1.00;;;;;;5033320;28;20246;-65
2022/06/09 02:56:42;;;;;;;19.20;7.23;;;14.00;1.00;;;;;;5050703;28;20231;-66
2022/06/09 02:59:10;;;;;;;16.63;6.70;;;14.00;52.10;;;;;;5061232;28;20207;-64
2022/06/09 03:01:38;;;;;;;16.07;7.47;;;14.00;1.00;;;;;;5060916;28;20280;-64
2022/06/09 03:04:05;;;;;;;20.43;7.10;;;14.00;1.00;;;;;;5059235;28;22975;-65
2022/06/09 03:06:33;;;;;;;15.17;6.03;;;14.00;1.00;;;;;;5049266;28;20211;-64
2022/06/09 03:09:00;;;;;;;13.50;6.27;;;14.10;1.00;;;;;;5058391;28;20204;-64
2022/06/09 03:11:27;;;;;;;13.70;6.37;;;14.10;1.00;;;;;;5049439;28;20191;-65
2022/06/09 03:13:54;;;;;;;16.97;6.53;;;14.10;1.00;;;;;;5060062;28;20199;-63
2022/06/09 03:16:21;;;;;;;15.23;6.50;;;14.10;1.00;;;;;;5061267;28;20252;-63
2022/06/09 03:18:48;;;;;;;14.67;5.97;;;14.20;1.00;;;;;;5044030;28;20264;-63
2022/06/09 03:21:15;;;;;;;21.60;7.00;;;14.20;99.90;;;;;;5044602;28;20284;-64
2022/06/09 03:23:42;;;;;;;12.20;5.80;;;14.20;99.90;;;;;;5059145;28;20216;-62
2022/06/09 03:26:10;;;;;;;13.37;5.87;;;14.20;99.90;;;;;;5039555;28;20231;-62
2022/06/09 03:28:37;;;;;;;16.67;7.03;;;14.20;99.90;;;;;;5058406;28;20200;-62
2022/06/09 03:31:04;;;;;;;14.80;6.03;;;14.20;99.90;;;;;;5044851;28;20612;-64
2022/06/09 03:33:31;;;;;;;16.37;6.43;;;14.20;99.90;;;;;;5057371;28;20195;-62
2022/06/09 03:35:58;;;;;;;21.10;6.57;;;14.20;99.90;;;;;;5057134;28;20799;-62
2022/06/09 03:38:25;;;;;;;15.73;5.33;;;14.20;99.90;;;;;;5021615;28;20238;-63
2022/06/09 03:40:52;;;;;;;21.40;6.67;;;14.20;99.90;;;;;;5056257;28;20553;-63
2022/06/09 03:43:19;;;;;;;11.73;5.20;;;14.30;72.60;;;;;;5035840;28;20199;-63
2022/06/09 03:45:46;;;;;;;12.63;5.80;;;14.30;99.90;;;;;;5049942;28;20223;-63
2022/06/09 03:48:13;;;;;;;18.20;6.43;;;14.30;99.90;;;;;;5023197;28;20200;-63
2022/06/09 03:50:40;;;;;;;18.93;6.83;;;14.40;99.90;;;;;;5056927;28;20237;-64
2022/06/09 03:53:07;;;;;;;19.43;5.87;;;14.40;99.90;;;;;;5057764;28;20248;-63
2022/06/09 03:55:35;;;;;;;13.77;5.63;;;14.40;99.90;;;;;;5056544;28;20191;-64
2022/06/09 03:58:02;;;;;;;22.70;6.57;;;14.40;56.00;;;;;;5056517;28;20203;-63
2022/06/09 04:00:31;;;;;;;15.40;5.83;;;14.40;46.80;;;;;;5055999;28;20211;-63
2022/06/09 04:02:59;;;;;;;15.10;5.80;;;14.40;44.60;;;;;;5044886;28;20728;-63
2022/06/09 04:05:27;;;;;;;15.90;5.97;;;14.50;18.60;;;;;;5040940;28;20655;-65
2022/06/09 04:07:55;;;;;;;22.87;7.13;;;14.50;1.00;;;;;;5056342;28;20226;-65
2022/06/09 04:10:27;;;;;;;12.43;6.40;;;14.40;1.00;;;;;;5053009;28;20694;-65
2022/06/09 04:12:54;;;;;;;20.10;7.40;;;14.40;1.00;;;;;;5058992;28;20741;-63
2022/06/09 04:15:22;;;;;;;18.40;7.97;;;14.50;1.00;;;;;;5044704;28;20253;-63
2022/06/09 04:17:52;;;;;;;22.83;8.20;;;14.50;1.00;;;;;;5059245;28;20241;-63
2022/06/09 04:20:23;;;;;;;16.97;7.20;;;14.60;1.00;;;;;;5052251;28;20227;-64
2022/06/09 04:22:51;;;;;;;26.70;9.03;;;14.60;1.00;;;;;;5041571;28;21077;-64
2022/06/09 04:25:19;;;;;;;15.33;7.53;;;14.60;1.00;;;;;;5041851;28;20194;-63
2022/06/09 04:27:46;;;;;;;17.83;9.00;;;14.60;1.00;;;;;;5040331;28;20693;-63
2022/06/09 04:30:14;;;;;;;17.77;9.73;;;14.70;1.00;;;;;;5052569;28;20527;-65
2022/06/09 04:32:50;;;;;;;19.23;9.57;;;14.80;1.00;;;;;;5055355;28;20278;-65
2022/06/09 04:35:17;;;;;;;19.83;8.80;;;14.80;1.00;;;;;;5036704;28;20195;-65
2022/06/09 04:37:59;;;;;;;21.60;8.53;;;14.80;99.90;;;;;;5054658;28;20219;-67
2022/06/09 04:40:38;;;;;;;19.80;10.00;;;14.80;99.90;;;;;;5037942;28;20196;-66
2022/06/09 04:43:11;;;;;;;22.40;10.53;;;14.80;99.90;;;;;;5056051;28;20192;-67
2022/06/09 04:45:40;;;;;;;23.93;10.83;;;14.80;99.90;;;;;;5056669;28;20315;-64
2022/06/09 04:48:09;;;;;;;25.80;9.87;;;14.90;1.00;;;;;;5056832;28;20218;-64
2022/06/09 04:50:37;;;;;;;17.17;10.20;;;15.00;99.90;;;;;;5044574;28;20227;-65
2022/06/09 04:53:07;;;;;;;21.70;10.63;;;15.10;99.90;;;;;;5042006;28;20229;-64
2022/06/09 04:55:36;;;;;;;23.67;10.23;;;15.00;1.00;;;;;;5056348;28;20546;-64
2022/06/09 04:58:03;;;;;;;17.20;9.40;;;15.10;99.90;;;;;;5055957;28;20199;-63
2022/06/09 05:00:31;;;;;;;19.70;9.53;;;15.20;1.00;;;;;;5054088;28;20210;-64
2022/06/09 05:03:00;;;;;;;23.20;9.80;;;15.10;1.00;;;;;;5042650;28;20199;-63
2022/06/09 05:05:33;;;;;;;13.90;10.23;;;15.20;56.80;;;;;;5056255;28;20207;-63
2022/06/09 05:08:00;;;;;;;19.23;10.53;;;15.20;88.80;;;;;;5042719;28;20735;-65
2022/06/09 05:10:28;;;;;;;18.20;10.93;;;15.10;1.00;;;;;;5057346;28;20225;-63
2022/06/09 05:12:56;;;;;;;22.50;12.30;;;15.00;99.90;;;;;;5058520;28;20195;-63
2022/06/09 05:15:23;;;;;;;21.10;11.20;;;14.90;99.90;;;;;;5055247;28;20218;-63
2022/06/09 05:17:52;;;;;;;22.97;12.10;;;14.90;99.90;;;;;;5042770;28;20544;-64
2022/06/09 05:20:22;;;;;;;24.40;12.47;;;15.00;99.90;;;;;;5041301;28;20271;-63
2022/06/09 05:22:49;;;;;;;20.17;11.97;;;14.90;99.90;;;;;;5061048;28;20314;-63
2022/06/09 05:25:16;;;;;;;26.60;13.83;;;14.90;99.90;;;;;;5040425;28;20200;-62
2022/06/09 05:27:44;;;;;;;24.13;13.13;;;14.80;99.90;;;;;;5056551;28;20256;-61
2022/06/09 05:30:15;;;;;;;29.33;15.27;;;14.90;99.90;;;;;;5055335;28;20198;-63
2022/06/09 05:32:42;;;;;;;25.37;14.03;;;15.00;99.90;;;;;;5039013;28;20650;-63
2022/06/09 05:35:10;;;;;;;21.70;14.47;;;15.00;1.00;;;;;;5053311;28;20223;-65
2022/06/09 05:45:58;;;;;;;35.00;18.90;;;15.00;1.00;;;;;;5041639;28;20227;-65
2022/06/09 05:48:25;;;;;;;32.43;17.90;;;15.10;1.00;;;;;;5058199;28;20232;-65
2022/06/09 05:50:53;;;;;;;30.17;18.60;;;15.30;1.00;;;;;;5041158;28;20203;-65
2022/06/09 05:53:21;;;;;;;30.80;18.43;;;15.40;1.00;;;;;;5045913;28;20258;-65
2022/06/09 05:55:48;;;;;;;33.10;19.77;;;15.40;1.00;;;;;;5044612;28;20591;-67
2022/06/09 05:58:15;;;;;;;27.07;17.63;;;15.30;1.00;;;;;;5037659;28;20582;-67
2022/06/09 06:00:42;;;;;;;26.03;16.40;;;15.40;1.00;;;;;;5043509;28;20214;-65
2022/06/09 06:03:13;;;;;;;32.20;18.37;;;15.60;1.00;;;;;;5062808;28;20201;-65
2022/06/09 06:08:26;;;;;;;25.00;16.40;;;15.80;1.00;;;;;;5053155;28;20249;-64
2022/06/09 06:10:53;;;;;;;34.40;19.30;;;15.90;99.90;;;;;;5044961;28;20253;-64
2022/06/09 06:13:20;;;;;;;25.60;17.27;;;15.90;1.00;;;;;;5037470;28;20253;-64
2022/06/09 06:15:47;;;;;;;27.92;17.00;;;16.20;99.90;;;;;;5054345;28;20192;-64
2022/06/09 06:18:14;;;;;;;32.63;19.40;;;16.30;99.90;;;;;;5040108;28;20191;-64
2022/06/09 06:20:41;;;;;;;28.95;17.33;;;16.20;1.00;;;;;;5058806;28;20732;-63
2022/06/09 06:23:08;;;;;;;29.00;18.53;;;16.30;99.90;;;;;;5042809;28;20608;-63
2022/06/09 06:25:39;;;;;;;28.08;17.33;;;16.30;1.00;;;;;;5025295;28;20214;-63
2022/06/09 06:28:06;;;;;;;29.58;18.35;;;16.60;1.00;;;;;;5058428;28;20637;-63
2022/06/09 06:30:33;;;;;;;29.00;18.60;;;16.50;1.00;;;;;;5057544;28;20218;-63
2022/06/09 06:33:00;;;;;;;28.88;18.02;;;16.70;1.00;;;;;;5057192;28;20253;-63
2022/06/09 06:35:27;;;;;;;28.45;18.15;;;16.90;1.00;;;;;;5059852;28;20662;-63
2022/06/09 06:37:54;;;;;;;25.85;18.85;;;16.90;1.00;;;;;;5047711;28;20218;-62
2022/06/09 06:40:21;;;;;;;33.42;19.50;;;16.80;1.00;;;;;;5041201;28;20222;-63
2022/06/09 06:42:48;;;;;;;24.75;18.83;;;16.90;1.00;;;;;;5058019;28;20265;-63
2022/06/09 06:45:15;;;;;;;28.58;19.23;;;17.10;1.00;;;;;;5047183;28;20207;-65
2022/06/09 06:47:43;;;;;;;29.02;18.20;;;17.20;1.00;;;;;;5059542;28;20223;-64
2022/06/09 06:50:11;;;;;;;30.02;18.65;;;17.20;99.90;;;;;;5043710;28;20199;-64
2022/06/09 06:52:39;;;;;;;24.55;19.30;;;17.30;99.90;;;;;;5045129;28;20290;-64
2022/06/09 06:55:08;;;;;;;25.08;18.27;;;17.30;99.90;;;;;;5064368;28;20221;-64
2022/06/09 06:57:35;;;;;;;26.25;16.70;;;17.90;99.90;;;;;;5051991;28;20654;-63
2022/06/09 07:00:03;;;;;;;26.95;17.30;;;18.50;89.60;;;;;;5059907;28;20241;-63
2022/06/09 07:02:30;;;;;;;26.73;16.27;;;18.90;1.00;;;;;;5056459;28;20203;-63
2022/06/09 07:05:19;;;;;;;22.60;15.13;;;20.50;1.00;;;;;;5062855;28;20763;-64
2022/06/09 07:07:46;;;;;;;26.67;15.57;;;20.80;1.00;;;;;;5056454;28;20211;-66
2022/06/09 07:10:13;;;;;;;23.77;16.08;;;19.50;1.00;;;;;;5049074;28;20673;-69
2022/06/09 07:12:41;;;;;;;22.73;15.45;;;19.80;1.00;;;;;;5033949;28;20204;-69
2022/06/09 07:15:13;;;;;;;20.10;16.55;;;19.70;1.00;;;;;;5047194;28;20215;-69
2022/06/09 07:17:40;;;;;;;24.30;17.02;;;19.30;1.00;;;;;;5060086;28;20206;-70
2022/06/09 07:20:10;;;;;;;30.15;17.63;;;18.70;1.00;;;;;;5040516;28;20289;-70
2022/06/09 07:22:37;;;;;;;28.20;20.58;;;18.40;1.00;;;;;;5048078;28;20226;-69
2022/06/09 07:25:05;;;;;;;27.85;20.92;;;18.60;1.00;;;;;;5038925;28;20224;-70
2022/06/09 07:27:32;;;;;;;36.50;26.55;;;18.10;1.00;;;;;;5049184;28;20671;-69
2022/06/09 07:30:00;;;;;;;31.85;22.58;;;18.10;1.00;;;;;;5037880;28;20200;-70
2022/06/09 07:32:28;;;;;;;31.20;21.17;;;18.00;1.00;;;;;;5042725;28;20196;-69
2022/06/09 07:34:55;;;;;;;26.27;22.50;;;18.10;1.00;;;;;;5039203;28;20755;-70
2022/06/09 07:37:22;;;;;;;30.15;20.00;;;17.70;99.90;;;;;;5041760;28;20255;-70
2022/06/09 07:39:49;;;;;;;28.73;20.42;;;17.60;36.60;;;;;;5040096;28;20703;-69
2022/06/09 07:42:16;;;;;;;24.35;17.35;;;18.00;99.90;;;;;;5037277;28;20245;-69
2022/06/09 07:44:45;;;;;;;26.75;22.15;;;18.70;1.00;;;;;;5041121;28;20204;-69
2022/06/09 07:47:12;;;;;;;25.45;19.52;;;19.00;1.00;;;;;;5048524;28;20714;-69
2022/06/09 07:49:39;;;;;;;27.27;20.10;;;19.40;1.00;;;;;;5041708;28;20729;-70
2022/06/09 07:52:06;;;;;;;27.85;21.80;;;19.80;1.00;;;;;;5039169;28;20200;-69
2022/06/09 07:54:33;;;;;;;23.25;17.05;;;20.20;1.00;;;;;;5042208;28;20199;-70
2022/06/09 07:57:00;;;;;;;25.63;17.55;;;19.00;1.00;;;;;;5025477;28;20261;-69
2022/06/09 07:59:27;;;;;;;22.08;18.55;;;18.80;1.00;;;;;;5025609;28;20188;-70
2022/06/09 08:01:54;;;;;;;28.52;19.50;;;19.40;1.00;;;;;;5036140;28;20246;-70
2022/06/09 08:04:28;;;;;;;31.83;25.75;;;19.60;1.00;;;;;;5027894;28;20269;-70
2022/06/09 08:06:55;;;;;;;36.40;30.58;;;20.20;1.00;;;;;;5031175;28;20267;-70
2022/06/09 08:09:22;;;;;;;26.48;20.15;;;20.30;1.00;;;;;;5019393;28;20196;-70
2022/06/09 08:11:49;;;;;;;23.35;16.63;;;19.80;1.00;;;;;;5039467;28;20218;-70
2022/06/09 08:14:16;;;;;;;23.10;20.60;;;19.50;1.00;;;;;;5036780;28;20200;-70
2022/06/09 08:16:49;;;;;;;24.45;18.15;;;19.30;1.00;;;;;;5041850;28;20230;-70
2022/06/09 08:19:16;;;;;;;23.58;19.50;;;18.50;1.00;;;;;;5036374;28;20204;-68
2022/06/09 08:21:43;;;;;;;21.13;18.75;;;18.20;1.00;;;;;;5035761;28;20286;-69
2022/06/09 08:24:20;;;;;;;24.45;17.35;;;18.80;1.00;;;;;;5047858;28;20253;-68
2022/06/09 08:26:48;;;;;;;23.60;17.38;;;19.60;1.00;;;;;;5036033;28;20204;-70
2022/06/09 08:29:23;;;;;;;18.85;16.85;;;19.80;1.00;;;;;;5049889;28;21172;-69
2022/06/09 08:31:50;;;;;;;25.95;18.17;;;19.50;1.00;;;;;;5034785;28;20196;-70
2022/06/09 08:34:17;;;;;;;22.50;18.75;;;19.80;1.00;;;;;;5032163;28;20197;-69
2022/06/09 08:36:44;;;;;;;22.88;18.75;;;19.70;1.00;;;;;;5030503;28;20278;-69
2022/06/09 08:39:11;;;;;;;22.30;15.00;;;20.60;1.00;;;;;;5036923;28;20592;-69
2022/06/09 08:42:12;;;;;;;17.17;14.23;;;22.90;99.90;;;;;;5038713;28;20200;-69
2022/06/09 08:44:42;;;;;;;15.60;12.65;;;22.60;99.90;;;;;;5034124;28;20199;-69
2022/06/09 08:47:42;;;;;;;18.48;13.98;;;23.50;99.90;;;;;;5031274;28;20862;-69
2022/06/09 08:50:18;;;;;;;19.02;14.30;;;22.50;99.90;;;;;;5032145;28;20204;-70
2022/06/09 08:52:59;;;;;;;17.27;12.43;;;24.10;99.90;;;;;;5032107;28;20583;-69
2022/06/09 08:55:33;;;;;;;16.70;12.27;;;25.80;99.90;;;;;;5033329;28;20223;-69
2022/06/09 08:58:11;;;;;;;16.42;11.85;;;25.70;99.90;;;;;;5031355;28;20219;-68
2022/06/09 09:00:49;;;;;;;17.88;12.10;;;24.20;99.90;;;;;;5034860;28;20202;-71
2022/06/09 09:03:28;;;;;;;17.90;13.10;;;24.40;99.90;;;;;;5033745;28;20194;-70
2022/06/09 09:05:58;;;;;;;18.75;12.80;;;23.50;99.90;;;;;;5030849;28;20562;-70
2022/06/09 09:08:26;;;;;;;19.60;14.15;;;22.60;99.90;;;;;;5034375;28;20992;-68
2022/06/09 09:11:09;;;;;;;13.32;10.68;;;22.30;99.90;;;;;;5037121;28;20199;-70
2022/06/09 09:13:50;;;;;;;22.25;15.60;;;23.30;99.90;;;;;;5029497;28;20265;-70
2022/06/09 09:16:17;;;;;;;21.63;15.00;;;22.00;99.90;;;;;;5051317;28;20245;-69
2022/06/09 09:18:46;;;;;;;18.83;12.95;;;23.60;99.90;;;;;;5034807;28;20195;-69
2022/06/09 09:21:31;;;;;;;15.85;11.95;;;25.80;99.90;;;;;;5040832;28;20231;-69
2022/06/09 09:24:23;;;;;;;14.90;11.65;;;24.40;99.90;;;;;;5020657;28;20674;-69
2022/06/09 09:27:02;;;;;;;18.00;10.55;;;23.70;99.90;;;;;;5036223;28;20203;-68
2022/06/09 09:30:04;;;;;;;12.70;10.23;;;26.10;99.90;;;;;;5025309;28;20216;-70
2022/06/09 09:32:40;;;;;;;14.65;10.40;;;25.50;99.90;;;;;;5024593;28;20195;-69
2022/06/09 09:35:40;;;;;;;18.35;9.48;;;22.80;99.90;;;;;;5032417;28;20244;-69
2022/06/09 09:38:09;;;;;;;13.68;8.25;;;23.80;99.90;;;;;;5031826;28;20228;-70
2022/06/09 09:40:42;;;;;;;13.15;8.30;;;24.60;99.90;;;;;;5033709;28;20203;-69
2022/06/09 09:43:12;;;;;;;10.30;7.45;;;25.10;99.90;;;;;;5033697;28;20198;-69
2022/06/09 09:45:55;;;;;;;15.38;6.97;;;26.90;99.90;;;;;;5036818;28;20219;-69
2022/06/09 09:48:22;;;;;;;10.77;5.63;;;26.60;99.90;;;;;;5022943;28;20230;-69
2022/06/09 09:50:59;;;;;;;9.98;6.20;;;27.00;99.90;;;;;;5033400;28;20235;-70
2022/06/09 09:53:41;;;;;;;11.68;5.72;;;28.00;99.90;;;;;;5032154;28;20188;-70
2022/06/09 09:56:17;;;;;;;11.13;6.45;;;28.40;99.90;;;;;;5030384;28;21664;-69
2022/06/09 09:58:47;;;;;;;8.20;6.20;;;28.40;99.90;;;;;;5034289;28;20192;-70
2022/06/09 10:01:17;;;;;;;9.55;5.07;;;28.70;99.90;;;;;;5031049;28;20204;-69
2022/06/09 10:10:40;;;;;;;9.75;5.10;;;29.70;99.90;;;;;;5033176;28;20282;-68
2022/06/09 10:13:14;;;;;;;7.45;4.60;;;30.30;99.90;;;;;;5034811;28;20196;-70
2022/06/09 10:16:01;;;;;;;8.57;4.47;;;31.50;99.90;;;;;;5033299;28;20655;-70
2022/06/09 10:18:52;;;;;;;10.10;5.85;;;30.20;99.90;;;;;;5037526;28;20206;-70
2022/06/09 10:21:53;;;;;;;10.85;6.63;;;27.30;99.90;;;;;;5036684;28;20227;-69
2022/06/09 10:24:45;;;;;;;9.75;7.25;;;27.40;99.90;;;;;;5036449;28;20175;-70
2022/06/09 10:27:16;;;;;;;12.25;6.60;;;26.70;99.90;;;;;;5037167;28;20245;-69
2022/06/09 10:29:55;;;;;;;10.05;5.10;;;26.60;99.90;;;;;;5050977;28;20219;-69
2022/06/09 10:32:30;;;;;;;9.55;4.93;;;28.40;99.90;;;;;;5035203;28;20277;-70
2022/06/09 10:35:22;;;;;;;11.05;6.10;;;27.90;99.90;;;;;;5041106;28;20214;-69
2022/06/09 10:37:58;;;;;;;8.88;5.78;;;25.90;99.90;;;;;;5035737;28;20240;-69
2022/06/09 10:40:46;;;;;;;8.38;5.47;;;27.50;99.90;;;;;;5034450;28;20670;-69
2022/06/09 10:43:25;;;;;;;8.32;5.75;;;27.70;99.90;;;;;;5041303;28;20200;-70
2022/06/09 10:46:16;;;;;;;8.88;6.60;;;28.20;99.90;;;;;;5030504;28;20223;-69
2022/06/09 10:55:24;;;;;;;14.05;7.53;;;27.60;99.90;;;;;;5034297;28;20242;-67
2022/06/09 10:58:16;;;;;;;11.93;9.00;;;28.30;99.90;;;;;;5029482;28;20203;-68
2022/06/09 11:00:47;;;;;;;16.30;8.98;;;28.40;99.90;;;;;;5028996;28;20185;-69
2022/06/09 11:03:35;;;;;;;8.82;6.90;;;27.30;99.90;;;;;;5029578;28;20230;-67
2022/06/09 11:06:11;;;;;;;13.43;6.68;;;25.20;99.90;;;;;;5039499;28;20601;-69
2022/06/09 11:09:15;;;;;;;13.05;7.55;;;25.00;99.90;;;;;;5038568;28;20245;-68
2022/06/09 11:11:55;;;;;;;12.57;8.18;;;24.50;99.90;;;;;;5040345;28;20222;-69
2022/06/09 11:14:25;;;;;;;17.17;7.70;;;24.20;99.90;;;;;;5041926;28;21242;-69
2022/06/09 11:17:07;;;;;;;11.88;8.93;;;24.20;99.90;;;;;;5038570;28;20222;-70
2022/06/09 11:20:05;;;;;;;10.45;7.40;;;23.80;99.90;;;;;;5038552;28;20560;-69
2022/06/09 11:23:10;;;;;;;11.50;6.95;;;22.90;99.90;;;;;;5039064;28;20707;-69
2022/06/09 11:25:40;;;;;;;3.78;2.17;;;21.30;1.00;;;;;;5003494;28;20265;-67
2022/06/09 11:28:26;;;;;;;9.82;4.25;;;18.70;1.00;;;;;;5038815;28;20211;-69
2022/06/09 11:30:59;;;;;;;4.18;1.90;;;17.70;99.90;;;;;;5052124;28;20223;-70
2022/06/09 11:34:01;;;;;;;3.72;1.50;;;17.40;10.20;;;;;;5036292;28;20254;-69
2022/06/09 11:36:39;;;;;;;3.20;1.60;;;16.50;1.00;;;;;;5040343;28;20199;-69
2022/06/09 11:39:43;;;;;;;1.77;1.20;;;16.50;1.00;;;;;;5031836;28;20224;-70
2022/06/09 11:42:44;;;;;;;3.28;1.60;;;16.30;1.00;;;;;;5035443;28;20191;-70
2022/06/09 11:45:34;;;;;;;4.28;1.70;;;16.50;1.00;;;;;;5034955;28;20261;-70
2022/06/09 11:48:05;;;;;;;4.23;1.43;;;16.50;1.00;;;;;;5047780;28;20723;-70
2022/06/09 11:50:40;;;;;;;2.50;1.67;;;16.30;99.90;;;;;;5039123;28;20275;-69
2022/06/09 11:53:07;;;;;;;5.20;2.10;;;16.00;99.90;;;;;;5040519;28;20209;-70
2022/06/09 11:58:36;;;;;;;3.65;2.22;;;16.40;99.90;;;;;;5036100;28;20195;-69
2022/06/09 12:01:31;;;;;;;5.55;2.10;;;16.70;99.90;;;;;;5037269;28;20199;-69
2022/06/09 12:04:36;;;;;;;3.95;2.35;;;16.80;99.90;;;;;;5034613;28;20266;-69
2022/06/09 12:08:08;;;;;;;6.30;2.35;;;16.60;99.90;;;;;;5041636;28;20702;-70
2022/06/09 12:11:10;;;;;;;4.35;2.67;;;16.60;1.00;;;;;;4967746;28;20204;-70
2022/06/09 12:13:47;;;;;;;3.80;2.08;;;16.70;1.00;;;;;;5030110;28;20253;-69
2022/06/09 12:16:37;;;;;;;3.50;2.10;;;16.90;99.90;;;;;;5037737;28;20253;-69
2022/06/09 12:19:13;;;;;;;4.43;2.25;;;16.90;99.90;;;;;;5033060;28;20685;-70
2022/06/09 12:21:44;;;;;;;4.25;2.10;;;17.00;1.00;;;;;;5051022;28;20258;-70
2022/06/09 12:24:14;;;;;;;3.75;2.03;;;16.90;99.90;;;;;;5027984;28;20203;-70
2022/06/09 12:26:42;;;;;;;2.42;2.05;;;16.90;99.90;;;;;;5032436;28;20202;-70
2022/06/09 12:29:34;;;;;;;3.38;1.90;;;17.10;99.90;;;;;;5038053;28;20219;-69
2022/06/09 12:32:10;;;;;;;3.58;2.08;;;17.20;99.90;;;;;;5039039;28;20226;-70
2022/06/09 12:34:40;;;;;;;3.30;1.80;;;17.20;99.90;;;;;;5051143;28;20194;-70
2022/06/09 12:37:22;;;;;;;2.55;1.85;;;17.20;99.90;;;;;;5054003;28;20203;-69
2022/06/09 12:39:58;;;;;;;1.85;1.55;;;17.20;99.90;;;;;;5055248;28;20191;-69
2022/06/09 12:42:47;;;;;;;4.20;1.90;;;17.40;99.90;;;;;;5030378;28;20199;-68
2022/06/09 12:45:24;;;;;;;5.90;2.22;;;17.80;99.90;;;;;;5055964;28;21082;-69
2022/06/09 12:48:12;;;;;;;3.92;1.40;;;17.80;1.00;;;;;;5060004;28;20198;-69
2022/06/09 12:50:50;;;;;;;4.03;1.67;;;17.60;1.00;;;;;;5058981;28;20232;-70
2022/06/09 12:53:31;;;;;;;3.63;2.65;;;17.40;34.90;;;;;;5030882;28;20249;-69
2022/06/09 12:56:06;;;;;;;3.75;2.33;;;17.30;99.90;;;;;;5058742;28;20190;-69
2022/06/09 12:58:54;;;;;;;4.07;2.55;;;17.50;84.60;;;;;;5039162;28;20248;-70
2022/06/09 13:01:28;;;;;;;3.90;2.10;;;17.40;99.90;;;;;;5056264;28;20225;-69
2022/06/09 13:03:59;;;;;;;3.63;2.22;;;18.10;99.90;;;;;;5044115;28;20688;-70
2022/06/09 13:06:40;;;;;;;3.22;1.80;;;18.70;1.00;;;;;;5054212;28;20241;-70
2022/06/09 13:09:32;;;;;;;3.28;2.05;;;19.70;1.00;;;;;;5025232;28;20219;-69
2022/06/09 13:15:03;;;;;;;3.03;2.15;;;20.20;1.00;;;;;;5039001;28;20199;-69
2022/06/09 13:17:37;;;;;;;3.05;2.00;;;20.50;1.00;;;;;;5043741;28;20622;-70
2022/06/09 13:20:11;;;;;;;3.13;2.08;;;21.10;99.90;;;;;;5024866;28;20289;-69
2022/06/09 13:22:38;;;;;;;3.38;2.05;;;21.40;99.90;;;;;;5036383;28;20811;-70
2022/06/09 13:25:13;;;;;;;3.50;2.22;;;21.30;99.90;;;;;;5032782;28;20196;-69
2022/06/09 13:27:41;;;;;;;6.13;2.40;;;20.40;1.00;;;;;;5030538;28;20597;-70
2022/06/09 13:30:30;;;;;;;3.47;2.45;;;20.20;1.00;;;;;;5038956;28;20200;-69
2022/06/09 13:32:57;;;;;;;3.70;2.00;;;20.80;99.90;;;;;;5032505;28;20659;-70
2022/06/09 13:35:44;;;;;;;3.78;2.33;;;21.40;99.90;;;;;;5049208;28;20253;-70
2022/06/09 13:38:29;;;;;;;5.00;3.28;;;21.20;99.90;;;;;;5034237;28;20208;-70
2022/06/09 13:41:02;;;;;;;3.95;2.80;;;20.90;99.90;;;;;;5037033;28;20196;-71
2022/06/09 13:43:35;;;;;;;4.18;2.72;;;21.30;99.90;;;;;;5034419;28;20253;-69